»·PEaware :: ASA2320 KBZN-KPDX

ASA2320 :: KBZN-KPDX

FLIGHT INFORMATION

Flight Status: Arrived
Operator:
Alaska Airlines
More flights by this operator :: More flights under this callsign
Pilot: Michael F. (26726)
Aircraft: BOEING 737-800
(B738)
More flights by this aircraft type
Origin: KBZN Gallatin
United States
Destination: KPDX Portland Intl
United States
More flights between these airports :: More routes between these airports
Route: TEERX4 HIA J16 PDT BAYYR HHOOD4
File this flight plan on PilotEdge
Remarks: RMK / SIMBRIEF
Altitude:
(Current/Filed)
36,000ft
Speed:
(Current/Filed)
463kts
Departed: 02-Apr-20 07:56 PM
Arrived: 02-Apr-20 09:25 PM
Distance/Time
Traveled:
479nm/1:28
Distance/Time
To Go:
Arrived

Flight Plot

Page will automatically refresh every two minutes.

Flight plan parsing failed; only flown route is shown


Map Options




Map Legend


Flown Route
Filed Route
Departure Airport
Arrival Airport
Navaid (VOR, NDB)
Fix

Horizontal Profiles

Position Reports

Time Latitude Longitude Heading Altitude Ground
Speed
02-Apr-20 19:36 45.779372 -111.161189 231 4479ft 0kts
02-Apr-20 19:37 45.779372 -111.161189 231 4479ft 0kts
02-Apr-20 19:38 45.779372 -111.161189 231 4479ft 0kts
02-Apr-20 19:39 45.779372 -111.161189 231 4479ft 0kts
02-Apr-20 19:40 45.779372 -111.161189 231 4479ft 0kts
02-Apr-20 19:41 45.779372 -111.161189 231 4479ft 0kts
02-Apr-20 19:42 45.779372 -111.161189 231 4479ft 0kts
02-Apr-20 19:43 45.779372 -111.161189 231 4479ft 0kts
02-Apr-20 19:44 45.779372 -111.161189 231 4479ft 0kts
02-Apr-20 19:45 45.779565 -111.160403 300 4479ft 1kts
02-Apr-20 19:46 45.779516 -111.160305 309 4479ft 0kts
02-Apr-20 19:47 45.779516 -111.160305 309 4479ft 0kts
02-Apr-20 19:48 45.779516 -111.160305 309 4479ft 0kts
02-Apr-20 19:49 45.779516 -111.160305 309 4479ft 0kts
02-Apr-20 19:50 45.779541 -111.160344 312 4479ft 0kts
02-Apr-20 19:51 45.780178 -111.160581 27 4479ft 5kts
02-Apr-20 19:52 45.782201 -111.162407 314 4479ft 11kts
02-Apr-20 19:53 45.785106 -111.166415 313 4479ft 13kts
02-Apr-20 19:54 45.787151 -111.167628 45 4479ft 13kts
02-Apr-20 19:55 45.781238 -111.157094 135 4479ft 108kts
02-Apr-20 19:56 45.744716 -111.126046 200 6433ft 175kts
02-Apr-20 19:57 45.707693 -111.191033 242 7926ft 251kts
02-Apr-20 19:58 45.708354 -111.297764 284 10607ft 285kts
02-Apr-20 19:59 45.721815 -111.416915 280 12635ft 333kts
02-Apr-20 20:00 45.737586 -111.558254 279 14463ft 373kts
02-Apr-20 20:01 45.759543 -111.705879 287 15973ft 381kts
02-Apr-20 20:02 45.792476 -111.850029 287 15983ft 381kts
02-Apr-20 20:03 45.824384 -111.996316 286 17941ft 389kts
02-Apr-20 20:04 45.855853 -112.146821 282 20028ft 400kts
02-Apr-20 20:05 45.863059 -112.309240 271 21837ft 414kts
02-Apr-20 20:06 45.862810 -112.476189 271 23462ft 425kts
02-Apr-20 20:07 45.862617 -112.648398 271 24799ft 437kts
02-Apr-20 20:08 45.863515 -112.824807 271 26141ft 443kts
02-Apr-20 20:09 45.863541 -113.000900 271 27774ft 440kts
02-Apr-20 20:10 45.863163 -113.175933 272 29352ft 436kts
02-Apr-20 20:11 45.862514 -113.349302 272 30724ft 434kts
02-Apr-20 20:12 45.861667 -113.522198 272 32031ft 432kts
02-Apr-20 20:13 45.860569 -113.694516 273 33261ft 430kts
02-Apr-20 20:14 45.859092 -113.866175 273 34380ft 429kts
02-Apr-20 20:15 45.857442 -114.036738 272 35402ft 428kts
02-Apr-20 20:16 45.855470 -114.207890 272 36161ft 430kts
02-Apr-20 20:17 45.853189 -114.379129 272 36176ft 428kts
02-Apr-20 20:18 45.850723 -114.549592 273 36185ft 428kts
02-Apr-20 20:19 45.847988 -114.720817 273 36195ft 427kts
02-Apr-20 20:20 45.845415 -114.890917 272 36204ft 428kts
02-Apr-20 20:21 45.841489 -115.061435 272 36215ft 427kts
02-Apr-20 20:22 45.837800 -115.231762 271 36225ft 426kts
02-Apr-20 20:23 45.833805 -115.401801 272 36234ft 427kts
02-Apr-20 20:24 45.829824 -115.571465 272 36238ft 426kts
02-Apr-20 20:25 45.825876 -115.741775 273 36212ft 426kts
02-Apr-20 20:26 45.821891 -115.911807 272 36190ft 427kts
02-Apr-20 20:27 45.816824 -116.081827 272 36176ft 427kts
02-Apr-20 20:28 45.811813 -116.251599 272 36169ft 427kts
02-Apr-20 20:29 45.806351 -116.421819 272 36169ft 426kts
02-Apr-20 20:30 45.800507 -116.591692 270 36169ft 426kts
02-Apr-20 20:31 45.794650 -116.761005 270 36171ft 426kts
02-Apr-20 20:32 45.788617 -116.930455 270 36173ft 424kts
02-Apr-20 20:33 45.782368 -117.099138 270 36176ft 424kts
02-Apr-20 20:34 45.775876 -117.267810 270 36179ft 424kts
02-Apr-20 20:35 45.769606 -117.436172 270 36180ft 423kts
02-Apr-20 20:36 45.762329 -117.604720 270 36181ft 424kts
02-Apr-20 20:37 45.754937 -117.773038 270 36182ft 423kts
02-Apr-20 20:38 45.747170 -117.941591 270 36183ft 424kts
02-Apr-20 20:39 45.739099 -118.110039 270 36165ft 424kts
02-Apr-20 20:40 45.731197 -118.277883 271 36152ft 423kts
02-Apr-20 20:41 45.723454 -118.446167 270 36151ft 422kts
02-Apr-20 20:42 45.715524 -118.613860 270 36164ft 422kts
02-Apr-20 20:43 45.706544 -118.781746 270 36178ft 422kts
02-Apr-20 20:44 45.697461 -118.948750 270 36179ft 421kts
02-Apr-20 20:45 45.687395 -119.115723 269 36181ft 421kts
02-Apr-20 20:46 45.676969 -119.282522 269 36185ft 420kts
02-Apr-20 20:47 45.666467 -119.449351 270 36186ft 420kts
02-Apr-20 20:48 45.656761 -119.615390 269 36186ft 419kts
02-Apr-20 20:49 45.646193 -119.781536 269 36187ft 420kts
02-Apr-20 20:50 45.635572 -119.943208 269 36190ft 420kts
02-Apr-20 20:51 45.624398 -120.109335 269 36196ft 420kts
02-Apr-20 20:52 45.612948 -120.275793 269 34684ft 420kts
02-Apr-20 20:53 45.601302 -120.441629 270 31789ft 419kts
02-Apr-20 20:54 45.589430 -120.607332 270 28705ft 421kts
02-Apr-20 20:55 45.577219 -120.774365 269 25586ft 421kts
02-Apr-20 20:56 45.565018 -120.937828 268 23035ft 409kts
02-Apr-20 20:57 45.553367 -121.097045 266 20510ft 398kts
02-Apr-20 20:58 45.541125 -121.251370 265 18503ft 376kts
02-Apr-20 20:59 45.530033 -121.390111 265 17955ft 328kts
02-Apr-20 21:00 45.529279 -121.517104 271 16564ft 317kts
02-Apr-20 21:01 45.529488 -121.642038 270 15141ft 310kts
02-Apr-20 21:02 45.530617 -121.758212 274 14507ft 287kts
02-Apr-20 21:03 45.535197 -121.871734 273 13368ft 283kts
02-Apr-20 21:04 45.542988 -121.982130 284 12248ft 277kts
02-Apr-20 21:05 45.564835 -122.084219 286 11172ft 273kts
02-Apr-20 21:06 45.586173 -122.187058 286 10085ft 266kts
02-Apr-20 21:08 45.606765 -122.286766 286 9019ft 256kts
02-Apr-20 21:09 45.626072 -122.380479 286 8028ft 250kts
02-Apr-20 21:10 45.646352 -122.473228 294 7040ft 237kts
02-Apr-20 21:11 45.674871 -122.551868 297 6298ft 214kts
02-Apr-20 21:12 45.701955 -122.627018 297 5269ft 212kts
02-Apr-20 21:13 45.729189 -122.702055 297 4855ft 216kts
02-Apr-20 21:14 45.756548 -122.778019 297 4144ft 211kts
02-Apr-20 21:15 45.773555 -122.853938 246 3941ft 198kts
02-Apr-20 21:16 45.729640 -122.891261 206 3962ft 179kts
02-Apr-20 21:17 45.694869 -122.932108 278 3927ft 169kts
02-Apr-20 21:18 45.728129 -122.928044 81 3971ft 184kts
02-Apr-20 21:19 45.694934 -122.877181 137 3983ft 183kts
02-Apr-20 21:20 45.671153 -122.815545 118 3039ft 165kts
02-Apr-20 21:21 45.648996 -122.759880 118 2196ft 158kts
02-Apr-20 21:22 45.627967 -122.705334 121 1386ft 155kts
02-Apr-20 21:23 45.607112 -122.652410 121 558ft 147kts
02-Apr-20 21:24 45.589511 -122.606758 118 38ft 56kts
02-Apr-20 21:24 45.587881 -122.600792 88 38ft 1kts
02-Apr-20 21:26 45.588141 -122.599081 65 38ft 9kts
02-Apr-20 21:27 45.588995 -122.597949 14 38ft 0kts
02-Apr-20 21:27 45.589027 -122.597937 14 38ft 0kts
02-Apr-20 21:29 45.589027 -122.597937 14 38ft 0kts
02-Apr-20 21:29 45.589027 -122.597937 14 38ft 0kts
02-Apr-20 21:30 45.589027 -122.597937 14 38ft 0kts
02-Apr-20 21:32 45.589027 -122.597937 14 38ft 0kts
02-Apr-20 21:32 45.589027 -122.597937 14 38ft 0kts
02-Apr-20 21:33 45.589027 -122.597937 14 38ft 0kts
02-Apr-20 21:34 45.589027 -122.597937 14 38ft 0kts
02-Apr-20 21:35 45.589027 -122.597937 14 38ft 0kts
02-Apr-20 21:36 45.589027 -122.597937 14 38ft 0kts
02-Apr-20 21:37 45.589027 -122.597937 14 38ft 0kts
02-Apr-20 21:38 45.589027 -122.597937 14 38ft 0kts

Navigation Log

Ident Type
Flight plan parsing failed, navigation log unavailable